Αρχική σελίδα
METAR-TAF:

METAR-TAF

Αεροδρόμια :

Σάντα Κλάρα, Κούβα

γεωγραφικό πλάτος: 22-29-32N, γεωγραφικό μήκος: 079-56-37W, υψόμετρο: 103 μ

Παρών καιρός

Η αναφορά έγινε 44 λεπτά πριν, στις 17:53 UTC
Άνεμος 30 kt από μεταβλητές κατευθύνσεις
Θερμοκρασία 27°C
Υγρασία 51%
Πίεση 1015 hPa
Ορατότητα: 9000 μ
Αρκετά νέφη σε ύψος 2000 πόδια

METAR: MUSC 151753Z VRB30KT 9000 BKN020 27/16 Q1015

Χρόνος: 13:37 (18:37 UTC)

Πρόγνωση Καιρού

Η αναφορά έγινε 1 ώρα και 37 λεπτά πριν, στις 17:00 UTC
Η πρόγνωση ισχύει από τις 15 στις 18 UTC έως τις 16 στις 18 UTC
Άνεμος 8 kt από BA
Ορατότητα: 9000 μ
Διάσπαρτα νέφη σε ύψος 2000 πόδια
Καθιστάμενος
από 16 στις 01 UTC έως τις 16 στις 03 UTC
Άνεμος 3 kt από μεταβλητές κατευθύνσεις
Καθιστάμενος
από 16 στις 15 UTC έως τις 16 στις 17 UTC
Άνεμος 8 kt από Ν/NA

TAF: MUSC 151700Z 1518/1618 05008KT 9000 SCT020 BECMG 1601/1603 VRB03KT BECMG 1615/1617 16008KT

Μετεωρολογικές αναφορές και προγνώσεις για περισσότερα από 4000 αεροδρόμια (δελτία METAR και TAF).

Οι διαθέσιμοι σταθμοί απεικονίζονται στο χάρτη με κίτρινες και κόκκινες κουκκίδες.

Μετακινήστε το ποντίκι πάνω από τις κουκκίδες για να δείτε το όνομα του σταθμού.

Στη συνέχεια, κάντε κλικ για να δείτε τις μετεωρολογικές αναφορές και τις προγνώσεις καιρού.

Για να αλλάξετε το χάρτη: κάντε κλικ στα πράσινα κουμπιά με τον μαύρο σταυρό για να ζουμάρετε, στο πράσινο κουμπί με την παύλα για να αφαιρέσετε το ζουμ ή στα πράσινα βέλη για να αντιπαραβάλλετε χάρτες.


METAR-TAF: